createdAt,value
2019-03-06T00:00:42.405Z,19.46
2019-03-06T00:01:42.326Z,19.47
2019-03-06T00:02:42.273Z,19.47
2019-03-06T00:03:42.361Z,19.57
2019-03-06T00:04:42.351Z,19.39
2019-03-06T00:05:42.337Z,19.51
2019-03-06T00:06:42.321Z,19.47
2019-03-06T00:07:42.355Z,19.50
2019-03-06T00:08:42.311Z,19.46
2019-03-06T00:09:42.297Z,19.51
2019-03-06T00:10:42.288Z,19.40
2019-03-06T00:11:42.279Z,19.46
2019-03-06T00:12:42.273Z,19.54
2019-03-06T00:13:42.296Z,19.46
2019-03-06T00:14:42.275Z,19.53
2019-03-06T00:15:42.228Z,19.50
2019-03-06T00:16:42.219Z,19.40
2019-03-06T00:17:42.211Z,19.46
2019-03-06T00:18:42.205Z,19.43
2019-03-06T00:19:42.247Z,19.47
2019-03-06T00:20:42.184Z,19.50
2019-03-06T00:21:42.171Z,19.43
2019-03-06T00:22:42.153Z,19.47
2019-03-06T00:23:42.140Z,19.43
2019-03-06T00:24:42.134Z,19.40
2019-03-06T00:25:42.159Z,19.42
2019-03-06T00:26:42.097Z,19.43
2019-03-06T00:27:42.098Z,19.46
2019-03-06T00:28:42.088Z,19.46
2019-03-06T00:29:42.074Z,19.42
2019-03-06T00:30:42.068Z,19.40
2019-03-06T00:31:42.119Z,19.42
2019-03-06T00:32:42.053Z,19.38
2019-03-06T00:33:42.049Z,19.46
2019-03-06T00:34:42.003Z,19.46
2019-03-06T00:35:42.049Z,19.48
2019-03-06T00:36:41.990Z,19.42
2019-03-06T00:37:42.015Z,19.39
2019-03-06T00:38:41.963Z,19.38
2019-03-06T00:39:41.954Z,19.46
2019-03-06T00:40:42.005Z,19.50
2019-03-06T00:41:41.947Z,19.42
2019-03-06T00:42:41.943Z,19.42
2019-03-06T00:43:41.972Z,19.46
2019-03-06T00:44:41.924Z,19.36
2019-03-06T00:45:41.913Z,19.42
2019-03-06T00:46:41.907Z,19.39
2019-03-06T00:47:41.896Z,19.46
2019-03-06T00:48:41.876Z,19.38
2019-03-06T00:49:41.883Z,19.42
2019-03-06T00:50:41.832Z,19.42
2019-03-06T00:51:41.827Z,19.39
2019-03-06T00:52:41.831Z,19.43
2019-03-06T00:53:41.826Z,19.42
2019-03-06T00:54:41.830Z,19.40
2019-03-06T00:55:41.821Z,19.38
2019-03-06T00:56:41.774Z,19.39
2019-03-06T00:57:41.753Z,19.42
2019-03-06T00:58:41.781Z,19.43
2019-03-06T00:59:41.733Z,19.40
2019-03-06T01:00:41.637Z,19.39
2019-03-06T01:01:41.747Z,19.42
2019-03-06T01:02:41.631Z,19.42
2019-03-06T01:03:41.698Z,19.42
2019-03-06T01:04:41.689Z,19.43
2019-03-06T01:05:41.678Z,19.42
2019-03-06T01:06:41.656Z,19.38
2019-03-06T01:07:41.691Z,19.40
2019-03-06T01:08:41.638Z,19.36
2019-03-06T01:09:41.649Z,19.39
2019-03-06T01:10:41.621Z,19.36
2019-03-06T01:11:41.616Z,19.38
2019-03-06T01:12:41.586Z,19.33
2019-03-06T01:13:41.619Z,19.40
2019-03-06T01:14:41.589Z,19.39
2019-03-06T01:15:41.606Z,19.36
2019-03-06T01:16:41.566Z,19.31
2019-03-06T01:17:41.548Z,19.36
2019-03-06T01:18:41.558Z,19.36
2019-03-06T01:19:41.613Z,19.36
2019-03-06T01:20:41.554Z,19.32
2019-03-06T01:21:41.504Z,19.38
2019-03-06T01:22:41.492Z,19.38
2019-03-06T01:23:41.481Z,19.32
2019-03-06T01:24:41.466Z,19.32
2019-03-06T01:25:41.503Z,19.31
2019-03-06T01:26:41.460Z,19.32
2019-03-06T01:27:41.453Z,19.29
2019-03-06T01:28:41.439Z,19.31
2019-03-06T01:29:41.425Z,19.35
2019-03-06T01:30:41.433Z,19.32
2019-03-06T01:31:41.453Z,19.33
2019-03-06T01:32:41.395Z,19.38
2019-03-06T01:33:41.383Z,19.28
2019-03-06T01:34:41.355Z,19.29
2019-03-06T01:35:41.349Z,19.23
2019-03-06T01:36:41.337Z,19.28
2019-03-06T01:37:41.369Z,19.20
2019-03-06T01:38:41.317Z,19.20
2019-03-06T01:39:41.313Z,19.24
2019-03-06T01:40:41.296Z,19.25
2019-03-06T01:41:41.281Z,19.28
2019-03-06T01:42:41.271Z,19.23
2019-03-06T01:43:41.296Z,19.25
2019-03-06T01:44:41.265Z,19.21
2019-03-06T01:45:41.342Z,19.25
2019-03-06T01:46:41.312Z,19.25
2019-03-06T01:47:41.308Z,19.31
2019-03-06T01:48:41.278Z,19.23
2019-03-06T01:49:41.345Z,19.23
2019-03-06T01:50:41.261Z,19.23
2019-03-06T01:51:41.418Z,19.24
2019-03-06T01:52:41.225Z,19.20
2019-03-06T01:53:41.202Z,19.31
2019-03-06T01:54:41.259Z,19.28
2019-03-06T01:55:41.143Z,19.23
2019-03-06T01:56:41.118Z,19.28
2019-03-06T01:57:41.113Z,19.31
2019-03-06T01:58:41.093Z,19.24
2019-03-06T01:59:41.086Z,19.23
2019-03-06T02:00:41.112Z,19.29
2019-03-06T02:01:41.083Z,19.18
2019-03-06T02:02:41.073Z,19.24
2019-03-06T02:03:41.086Z,19.25
2019-03-06T02:04:41.060Z,19.25
2019-03-06T02:05:41.028Z,19.25
2019-03-06T02:06:41.055Z,19.23
2019-03-06T02:07:41.005Z,19.24
2019-03-06T02:08:41.017Z,19.28
2019-03-06T02:09:40.990Z,19.21
2019-03-06T02:10:41.600Z,19.24
2019-03-06T02:11:40.968Z,19.24
2019-03-06T02:12:40.994Z,19.21
2019-03-06T02:13:40.944Z,19.13
2019-03-06T02:14:40.829Z,19.21
2019-03-06T02:15:40.913Z,19.23
2019-03-06T02:16:40.904Z,19.17
2019-03-06T02:17:40.903Z,19.21
2019-03-06T02:18:40.877Z,19.23
2019-03-06T02:19:40.781Z,19.23
2019-03-06T02:20:40.876Z,19.20
2019-03-06T02:21:40.851Z,19.21
2019-03-06T02:22:40.845Z,19.23
2019-03-06T02:23:40.827Z,19.15
2019-03-06T02:24:40.849Z,19.18
2019-03-06T02:25:40.791Z,19.20
2019-03-06T02:26:40.806Z,19.18
2019-03-06T02:27:40.782Z,19.15
2019-03-06T02:28:40.763Z,19.15
2019-03-06T02:29:40.750Z,19.15
2019-03-06T02:30:40.689Z,19.15
2019-03-06T02:31:40.660Z,19.23
2019-03-06T02:32:40.727Z,19.23
2019-03-06T02:33:40.740Z,19.21
2019-03-06T02:34:40.705Z,19.23
2019-03-06T02:35:40.721Z,19.21
2019-03-06T02:36:40.729Z,19.20
2019-03-06T02:37:40.706Z,19.21
2019-03-06T02:38:40.658Z,19.21
2019-03-06T02:39:40.671Z,19.20
2019-03-06T02:40:40.683Z,19.14
2019-03-06T02:41:40.650Z,19.15
2019-03-06T02:42:40.724Z,19.17
2019-03-06T02:43:40.620Z,19.23
2019-03-06T02:44:40.505Z,19.18
2019-03-06T02:45:40.598Z,19.17
2019-03-06T02:46:40.612Z,19.20
2019-03-06T02:47:40.595Z,19.20
2019-03-06T02:48:40.622Z,19.18
2019-03-06T02:49:40.553Z,19.17
2019-03-06T02:50:40.527Z,19.15
2019-03-06T02:51:40.512Z,19.13
2019-03-06T02:52:40.523Z,19.21
2019-03-06T02:53:40.547Z,19.21
2019-03-06T02:54:40.525Z,19.21
2019-03-06T02:55:40.482Z,19.18
2019-03-06T02:56:40.491Z,19.13
2019-03-06T02:57:40.443Z,19.23
2019-03-06T02:58:40.468Z,19.23
2019-03-06T02:59:40.477Z,19.23
2019-03-06T03:00:40.444Z,19.18
2019-03-06T03:01:40.418Z,19.18
2019-03-06T03:02:40.407Z,19.17
2019-03-06T03:03:40.382Z,19.21
2019-03-06T03:04:40.379Z,19.13
2019-03-06T03:05:40.375Z,19.21
2019-03-06T03:06:40.400Z,19.14
2019-03-06T03:07:40.379Z,19.18
2019-03-06T03:08:40.323Z,19.15
2019-03-06T03:09:40.326Z,19.17
2019-03-06T03:10:40.310Z,19.17
2019-03-06T03:11:40.319Z,19.14
2019-03-06T03:12:40.326Z,19.15
2019-03-06T03:13:40.191Z,19.13
2019-03-06T03:14:40.268Z,19.21
2019-03-06T03:15:40.283Z,19.18
2019-03-06T03:16:40.259Z,19.14
2019-03-06T03:17:40.242Z,19.15
2019-03-06T03:18:40.305Z,19.17
2019-03-06T03:19:40.214Z,19.14
2019-03-06T03:20:40.196Z,19.11
2019-03-06T03:21:40.214Z,19.14
2019-03-06T03:22:40.179Z,19.08
2019-03-06T03:23:40.162Z,19.18
2019-03-06T03:24:40.220Z,19.18
2019-03-06T03:25:40.178Z,19.18
2019-03-06T03:26:40.141Z,19.17
2019-03-06T03:27:40.128Z,19.14
2019-03-06T03:28:40.109Z,19.14
2019-03-06T03:29:40.094Z,19.14
2019-03-06T03:30:40.133Z,19.10
2019-03-06T03:31:40.137Z,19.14
2019-03-06T03:32:40.072Z,19.11
2019-03-06T03:33:40.076Z,19.08
2019-03-06T03:34:40.055Z,19.15
2019-03-06T03:35:40.061Z,19.17
2019-03-06T03:36:40.061Z,19.14
2019-03-06T03:37:40.017Z,19.17
2019-03-06T03:38:40.001Z,19.13
2019-03-06T03:39:39.986Z,19.14
2019-03-06T03:40:40.009Z,19.17
2019-03-06T03:41:39.965Z,19.10
2019-03-06T03:42:40.317Z,19.17
2019-03-06T03:43:39.981Z,19.21
2019-03-06T03:44:39.944Z,19.15
2019-03-06T03:45:39.937Z,19.14
2019-03-06T03:46:39.940Z,19.14
2019-03-06T03:47:39.929Z,19.20
2019-03-06T03:48:39.931Z,19.18
2019-03-06T03:49:39.892Z,19.14
2019-03-06T03:50:39.896Z,19.13
2019-03-06T03:51:39.859Z,19.15
2019-03-06T03:52:39.844Z,19.14
2019-03-06T03:53:39.855Z,19.02
2019-03-06T03:54:39.859Z,19.15
2019-03-06T03:55:39.842Z,19.20
2019-03-06T03:56:39.834Z,19.20
2019-03-06T03:57:39.791Z,19.14
2019-03-06T03:58:39.801Z,19.20
2019-03-06T03:59:39.790Z,19.17
2019-03-06T04:00:39.815Z,19.15
2019-03-06T04:01:39.797Z,19.14
2019-03-06T04:02:39.761Z,19.15
2019-03-06T04:03:39.824Z,19.15
2019-03-06T04:04:39.747Z,19.15
2019-03-06T04:05:39.722Z,19.06
2019-03-06T04:06:39.767Z,19.18
2019-03-06T04:07:39.685Z,19.17
2019-03-06T04:08:39.753Z,19.10
2019-03-06T04:09:39.673Z,19.02
2019-03-06T04:10:39.656Z,19.08
2019-03-06T04:11:39.634Z,19.18
2019-03-06T04:12:39.591Z,19.05
2019-03-06T04:13:39.618Z,19.08
2019-03-06T04:14:39.602Z,19.11
2019-03-06T04:15:39.614Z,19.06
2019-03-06T04:16:39.511Z,19.06
2019-03-06T04:17:39.571Z,19.06
2019-03-06T04:18:39.622Z,19.02
2019-03-06T04:19:39.554Z,19.05
2019-03-06T04:20:39.545Z,19.06
2019-03-06T04:21:39.533Z,19.08
2019-03-06T04:22:39.523Z,19.06
2019-03-06T04:23:39.539Z,19.10
2019-03-06T04:24:39.597Z,19.05
2019-03-06T04:25:39.486Z,19.06
2019-03-06T04:26:39.488Z,19.11
2019-03-06T04:27:39.484Z,19.06
2019-03-06T04:28:39.464Z,19.06
2019-03-06T04:29:39.510Z,19.08
2019-03-06T04:30:39.456Z,19.08
2019-03-06T04:31:39.424Z,19.08
2019-03-06T04:32:39.423Z,19.08
2019-03-06T04:33:39.434Z,19.01
2019-03-06T04:34:39.409Z,19.02
2019-03-06T04:35:39.479Z,19.02
2019-03-06T04:36:39.380Z,19.05
2019-03-06T04:37:39.386Z,19.08
2019-03-06T04:38:39.347Z,19.02
2019-03-06T04:39:39.330Z,19.02
2019-03-06T04:40:39.322Z,19.06
2019-03-06T04:41:39.359Z,18.98
2019-03-06T04:42:39.307Z,19.02
2019-03-06T04:43:39.280Z,19.06
2019-03-06T04:44:39.309Z,19.05
2019-03-06T04:45:39.291Z,18.98
2019-03-06T04:46:39.268Z,19.05
2019-03-06T04:47:39.273Z,18.98
2019-03-06T04:48:39.264Z,19.05
2019-03-06T04:49:39.227Z,19.02
2019-03-06T04:50:39.227Z,19.05
2019-03-06T04:51:39.213Z,19.02
2019-03-06T04:52:39.237Z,19.05
2019-03-06T04:53:39.327Z,18.99
2019-03-06T04:54:39.187Z,19.02
2019-03-06T04:55:39.205Z,18.99
2019-03-06T04:56:39.089Z,19.02
2019-03-06T04:57:39.150Z,19.08
2019-03-06T04:58:39.123Z,19.02
2019-03-06T04:59:39.189Z,19.01
2019-03-06T05:00:39.128Z,18.99
2019-03-06T05:01:39.109Z,19.01
2019-03-06T05:02:39.153Z,19.06
2019-03-06T05:03:39.075Z,18.99
2019-03-06T05:04:39.102Z,19.01
2019-03-06T05:05:39.067Z,18.99
2019-03-06T05:06:39.060Z,19.08
2019-03-06T05:07:39.041Z,19.06
2019-03-06T05:08:39.033Z,19.05
2019-03-06T05:09:39.051Z,19.02
2019-03-06T05:10:39.026Z,18.99
2019-03-06T05:11:38.986Z,18.97
2019-03-06T05:12:38.972Z,19.02
2019-03-06T05:13:38.974Z,19.08
2019-03-06T05:14:38.987Z,18.99
2019-03-06T05:15:38.956Z,18.99
2019-03-06T05:16:38.995Z,19.08
2019-03-06T05:17:38.936Z,18.99
2019-03-06T05:18:40.363Z,19.08
2019-03-06T05:19:38.901Z,19.02
2019-03-06T05:20:38.899Z,18.99
2019-03-06T05:21:38.875Z,19.02
2019-03-06T05:22:38.902Z,19.01
2019-03-06T05:23:38.874Z,19.08
2019-03-06T05:24:38.840Z,19.02
2019-03-06T05:25:38.875Z,19.08
2019-03-06T05:26:38.856Z,18.98
2019-03-06T05:27:38.806Z,18.99
2019-03-06T05:28:38.838Z,18.98
2019-03-06T05:29:38.804Z,18.95
2019-03-06T05:30:38.772Z,19.06
2019-03-06T05:31:38.794Z,19.02
2019-03-06T05:32:38.768Z,19.02
2019-03-06T05:33:38.790Z,19.08
2019-03-06T05:34:38.753Z,19.02
2019-03-06T05:35:38.752Z,19.01
2019-03-06T05:36:38.717Z,18.99
2019-03-06T05:37:38.732Z,19.02
2019-03-06T05:38:38.709Z,19.01
2019-03-06T05:39:38.720Z,19.02
2019-03-06T05:40:38.678Z,18.97
2019-03-06T05:41:38.657Z,18.98
2019-03-06T05:42:38.649Z,19.02
2019-03-06T05:43:38.665Z,19.06
2019-03-06T05:44:38.661Z,19.06
2019-03-06T05:45:38.657Z,18.97
2019-03-06T05:46:38.601Z,18.99
2019-03-06T05:47:38.624Z,18.98
2019-03-06T05:48:38.572Z,18.97
2019-03-06T05:49:38.571Z,18.98
2019-03-06T05:50:38.604Z,18.98
2019-03-06T05:51:38.584Z,18.95
2019-03-06T05:52:38.547Z,18.98
2019-03-06T05:53:38.531Z,18.95
2019-03-06T05:54:38.513Z,18.95
2019-03-06T05:55:38.520Z,18.99
2019-03-06T05:56:38.519Z,18.98
2019-03-06T05:57:38.542Z,18.98
2019-03-06T05:58:38.475Z,18.98
2019-03-06T05:59:38.467Z,18.99
2019-03-06T06:00:38.473Z,18.95
2019-03-06T06:01:38.440Z,18.99
2019-03-06T06:02:38.429Z,18.97
2019-03-06T06:03:38.466Z,19.06
2019-03-06T06:04:38.446Z,18.97
2019-03-06T06:05:38.394Z,19.06
2019-03-06T06:06:38.388Z,19.01
2019-03-06T06:07:38.392Z,18.99
2019-03-06T06:08:38.383Z,19.06
2019-03-06T06:09:38.369Z,19.01
2019-03-06T06:10:38.379Z,19.01
2019-03-06T06:11:38.327Z,18.99
2019-03-06T06:12:38.315Z,18.99
2019-03-06T06:13:38.341Z,18.99
2019-03-06T06:14:38.316Z,18.99
2019-03-06T06:15:38.303Z,19.01
2019-03-06T06:16:38.320Z,18.99
2019-03-06T06:17:38.266Z,18.99
2019-03-06T06:18:38.290Z,19.02
2019-03-06T06:19:38.251Z,19.02
2019-03-06T06:20:38.228Z,18.99
2019-03-06T06:21:38.216Z,18.99
2019-03-06T06:22:38.284Z,19.01
2019-03-06T06:23:38.214Z,18.98
2019-03-06T06:24:38.213Z,18.99
2019-03-06T06:25:38.198Z,19.05
2019-03-06T06:26:38.082Z,19.02
2019-03-06T06:27:38.057Z,19.02
2019-03-06T06:28:38.362Z,19.10
2019-03-06T06:29:38.151Z,18.99
2019-03-06T06:30:38.054Z,19.05
2019-03-06T06:31:38.031Z,18.95
2019-03-06T06:32:38.023Z,19.06
2019-03-06T06:33:38.125Z,19.05
2019-03-06T06:34:38.120Z,18.99
2019-03-06T06:35:38.092Z,19.02
2019-03-06T06:36:37.974Z,19.01
2019-03-06T06:37:38.068Z,19.10
2019-03-06T06:38:38.057Z,19.02
2019-03-06T06:39:37.969Z,19.05
2019-03-06T06:40:38.030Z,19.02
2019-03-06T06:41:38.038Z,19.06
2019-03-06T06:42:37.912Z,19.02
2019-03-06T06:43:37.936Z,19.01
2019-03-06T06:44:37.881Z,19.06
2019-03-06T06:45:37.952Z,19.06
2019-03-06T06:46:37.883Z,19.10
2019-03-06T06:47:37.971Z,19.11
2019-03-06T06:48:37.856Z,19.11
2019-03-06T06:49:37.879Z,19.08
2019-03-06T06:50:37.812Z,19.17
2019-03-06T06:51:37.797Z,19.15
2019-03-06T06:52:37.801Z,19.15
2019-03-06T06:53:37.823Z,19.08
2019-03-06T06:54:37.765Z,19.17
2019-03-06T06:55:37.785Z,19.17
2019-03-06T06:56:37.758Z,19.14
2019-03-06T06:57:37.750Z,19.14
2019-03-06T06:58:37.821Z,19.05
2019-03-06T06:59:37.708Z,19.08
2019-03-06T07:00:37.700Z,19.08
2019-03-06T07:01:37.725Z,19.11
2019-03-06T07:02:37.685Z,18.98
2019-03-06T07:03:37.674Z,18.98
2019-03-06T07:04:37.663Z,18.98
2019-03-06T07:05:37.643Z,19.05
2019-03-06T07:06:37.638Z,19.05
2019-03-06T07:07:37.681Z,18.99
2019-03-06T07:08:37.612Z,19.11
2019-03-06T07:09:37.613Z,19.02
2019-03-06T07:10:37.592Z,19.01
2019-03-06T07:11:37.586Z,19.10
2019-03-06T07:12:37.594Z,19.18
2019-03-06T07:13:37.618Z,19.17
2019-03-06T07:14:37.574Z,19.17
2019-03-06T07:15:37.529Z,19.15
2019-03-06T07:16:37.529Z,19.15
2019-03-06T07:17:37.570Z,19.17
2019-03-06T07:18:37.512Z,19.15
2019-03-06T07:19:37.537Z,19.23
2019-03-06T07:20:37.494Z,19.23
2019-03-06T07:21:37.479Z,19.24
2019-03-06T07:22:37.477Z,19.18
2019-03-06T07:23:37.446Z,19.21
2019-03-06T07:24:37.578Z,19.31
2019-03-06T07:25:37.472Z,19.32
2019-03-06T07:26:37.435Z,19.35
2019-03-06T07:27:37.419Z,19.39
2019-03-06T07:28:38.315Z,19.38
2019-03-06T07:29:37.387Z,19.42
2019-03-06T07:30:37.384Z,19.46
2019-03-06T07:31:37.384Z,19.47
2019-03-06T07:32:37.359Z,19.57
2019-03-06T07:33:37.445Z,19.48
2019-03-06T07:34:37.432Z,19.58
2019-03-06T07:35:37.346Z,19.61
2019-03-06T07:36:37.352Z,19.58
2019-03-06T07:37:37.360Z,19.57
2019-03-06T07:38:37.296Z,19.66
2019-03-06T07:39:37.400Z,19.70
2019-03-06T07:40:37.369Z,19.69
2019-03-06T07:41:37.257Z,19.69
2019-03-06T07:42:37.283Z,19.70
2019-03-06T07:43:37.284Z,19.79
2019-03-06T07:44:37.236Z,19.72
2019-03-06T07:45:37.199Z,19.79
2019-03-06T07:46:37.199Z,19.91
2019-03-06T07:47:37.188Z,19.86
2019-03-06T07:48:37.244Z,19.84
2019-03-06T07:49:44.732Z,19.93
2019-03-06T07:50:38.165Z,19.84
2019-03-06T07:51:37.155Z,19.98
2019-03-06T07:52:37.134Z,19.90
2019-03-06T07:53:37.119Z,19.97
2019-03-06T07:54:37.149Z,19.93
2019-03-06T07:55:37.111Z,20.00
2019-03-06T07:56:37.097Z,20.09
2019-03-06T07:57:37.099Z,20.03
2019-03-06T07:58:37.195Z,20.00
2019-03-06T07:59:37.073Z,20.13
2019-03-06T08:00:37.163Z,20.13
2019-03-06T08:01:37.077Z,20.18
2019-03-06T08:02:37.036Z,20.25
2019-03-06T08:03:37.034Z,20.15
2019-03-06T08:04:38.083Z,20.16
2019-03-06T08:05:37.004Z,20.18
2019-03-06T08:06:37.042Z,20.30
2019-03-06T08:07:36.973Z,20.33
2019-03-06T08:08:37.070Z,20.33
2019-03-06T08:09:36.956Z,20.33
2019-03-06T08:10:36.952Z,20.35
2019-03-06T08:11:36.937Z,20.42
2019-03-06T08:12:37.412Z,20.41
2019-03-06T08:13:37.018Z,20.41
2019-03-06T08:14:37.036Z,20.43
2019-03-06T08:15:36.974Z,20.43
2019-03-06T08:16:36.959Z,20.42
2019-03-06T08:17:36.955Z,20.28
2019-03-06T08:18:37.011Z,20.25
2019-03-06T08:19:36.946Z,20.18
2019-03-06T08:20:36.921Z,20.10
2019-03-06T08:21:36.833Z,20.00
2019-03-06T08:22:36.809Z,19.87
2019-03-06T08:23:36.916Z,19.86
2019-03-06T08:24:37.249Z,19.78
2019-03-06T08:25:36.780Z,19.72
2019-03-06T08:26:36.763Z,19.57
2019-03-06T08:27:36.869Z,19.61
2019-03-06T08:28:36.848Z,19.57
2019-03-06T08:29:36.733Z,19.57
2019-03-06T08:30:36.794Z,19.58
2019-03-06T08:31:36.707Z,19.53
2019-03-06T08:32:36.810Z,19.42
2019-03-06T08:33:36.800Z,19.23
2019-03-06T08:34:36.803Z,19.01
2019-03-06T08:35:36.664Z,18.92
2019-03-06T08:36:36.690Z,18.91
2019-03-06T08:37:36.763Z,18.83
2019-03-06T08:38:36.654Z,18.86
2019-03-06T08:39:36.702Z,18.92
2019-03-06T08:40:36.619Z,18.94
2019-03-06T08:41:36.624Z,19.06
2019-03-06T08:42:36.659Z,19.06
2019-03-06T08:43:36.721Z,19.18
2019-03-06T08:44:36.660Z,19.24
2019-03-06T08:45:36.673Z,19.24
2019-03-06T08:46:36.666Z,19.35
2019-03-06T08:47:36.642Z,19.35
2019-03-06T08:48:36.662Z,19.50
2019-03-06T08:49:36.653Z,19.43
2019-03-06T08:50:36.617Z,19.40
2019-03-06T08:51:36.595Z,19.50
2019-03-06T08:52:36.607Z,19.55
2019-03-06T08:53:36.471Z,19.61
2019-03-06T08:54:36.536Z,19.57
2019-03-06T08:55:36.453Z,19.69
2019-03-06T08:56:36.543Z,19.69
2019-03-06T08:57:36.532Z,19.69
2019-03-06T08:58:36.517Z,19.73
2019-03-06T08:59:36.505Z,19.79
2019-03-06T09:00:36.526Z,19.76
2019-03-06T09:01:36.517Z,19.80
2019-03-06T09:02:36.485Z,19.80
2019-03-06T09:03:36.463Z,19.93
2019-03-06T09:04:36.458Z,19.88
2019-03-06T09:05:36.437Z,19.90
2019-03-06T09:06:36.604Z,20.00
2019-03-06T09:07:36.428Z,19.98
2019-03-06T09:08:36.408Z,20.02
2019-03-06T09:09:36.382Z,20.03
2019-03-06T09:10:36.388Z,19.97
2019-03-06T09:11:36.370Z,20.00
2019-03-06T09:12:36.391Z,20.23
2019-03-06T09:13:36.349Z,20.15
2019-03-06T09:14:36.353Z,20.21
2019-03-06T09:15:36.343Z,20.21
2019-03-06T09:16:36.322Z,20.21
2019-03-06T09:17:36.302Z,20.24
2019-03-06T09:18:36.341Z,20.18
2019-03-06T09:19:36.281Z,20.15
2019-03-06T09:20:40.705Z,20.23
2019-03-06T09:21:36.253Z,20.28
2019-03-06T09:22:36.279Z,20.38
2019-03-06T09:23:36.246Z,20.34
2019-03-06T09:24:36.293Z,20.33
2019-03-06T09:25:36.842Z,20.35
2019-03-06T09:26:36.224Z,20.38
2019-03-06T09:27:36.222Z,20.41
2019-03-06T09:28:36.204Z,20.46
2019-03-06T09:29:36.207Z,20.53
2019-03-06T09:30:36.240Z,20.49
2019-03-06T09:31:36.186Z,20.47
2019-03-06T09:32:36.134Z,20.50
2019-03-06T09:33:36.146Z,20.61
2019-03-06T09:34:36.128Z,20.53
2019-03-06T09:35:36.184Z,20.54
2019-03-06T09:36:36.165Z,20.64
2019-03-06T09:37:36.086Z,20.54
2019-03-06T09:38:36.109Z,20.66
2019-03-06T09:39:36.058Z,20.66
2019-03-06T09:40:36.102Z,20.58
2019-03-06T09:41:36.091Z,20.66
2019-03-06T09:42:36.085Z,20.68
2019-03-06T09:43:36.062Z,20.68
2019-03-06T09:44:36.027Z,20.71
2019-03-06T09:45:36.015Z,20.80
2019-03-06T09:46:36.023Z,20.74
2019-03-06T09:47:35.971Z,20.81
2019-03-06T09:48:36.011Z,20.69
2019-03-06T09:49:35.997Z,20.74
2019-03-06T09:50:35.972Z,20.87
2019-03-06T09:51:35.927Z,20.79
2019-03-06T09:52:35.921Z,20.90
2019-03-06T09:53:35.969Z,20.84
2019-03-06T09:54:37.940Z,20.91
2019-03-06T09:55:35.904Z,20.86
2019-03-06T09:56:35.864Z,20.84
2019-03-06T09:57:35.876Z,20.83
2019-03-06T09:58:35.860Z,20.86
2019-03-06T09:59:35.880Z,20.81
2019-03-06T10:00:35.876Z,20.86
2019-03-06T10:01:35.819Z,20.87
2019-03-06T10:02:35.844Z,20.91
2019-03-06T10:03:35.848Z,20.95
2019-03-06T10:04:35.788Z,21.01
2019-03-06T10:05:35.775Z,21.01
2019-03-06T10:06:35.879Z,21.04
2019-03-06T10:07:35.762Z,21.14
2019-03-06T10:08:35.838Z,21.11
2019-03-06T10:09:35.742Z,21.13
2019-03-06T10:10:35.714Z,21.20
2019-03-06T10:11:35.733Z,21.19
2019-03-06T10:12:35.876Z,21.27
2019-03-06T10:13:41.715Z,21.23
2019-03-06T10:14:36.700Z,21.36
2019-03-06T10:15:35.692Z,21.30
2019-03-06T10:16:35.658Z,21.36
2019-03-06T10:17:35.644Z,21.38
2019-03-06T10:18:35.686Z,21.46
2019-03-06T10:19:35.623Z,21.45
2019-03-06T10:20:35.628Z,21.53
2019-03-06T10:21:35.640Z,21.48
2019-03-06T10:22:35.615Z,21.53
2019-03-06T10:23:35.582Z,21.59
2019-03-06T10:24:35.628Z,21.56
2019-03-06T10:25:35.623Z,21.63
2019-03-06T10:26:35.584Z,21.63
2019-03-06T10:27:35.630Z,21.60
2019-03-06T10:28:36.643Z,21.57
2019-03-06T10:29:35.533Z,21.64
2019-03-06T10:30:35.581Z,21.72
2019-03-06T10:31:35.538Z,21.72
2019-03-06T10:32:35.505Z,21.72
2019-03-06T10:33:35.509Z,21.78
2019-03-06T10:34:35.481Z,21.85
2019-03-06T10:35:35.469Z,21.83
2019-03-06T10:36:35.542Z,22.01
2019-03-06T10:37:35.416Z,22.02
2019-03-06T10:38:35.442Z,22.07
2019-03-06T10:39:35.419Z,22.10
2019-03-06T10:40:35.403Z,22.07
2019-03-06T10:41:35.399Z,22.07
2019-03-06T10:42:35.420Z,22.09
2019-03-06T10:43:35.377Z,22.17
2019-03-06T10:44:35.348Z,22.19
2019-03-06T10:45:41.308Z,22.22
2019-03-06T10:46:36.340Z,22.22
2019-03-06T10:47:35.354Z,22.22
2019-03-06T10:48:35.345Z,22.34
2019-03-06T10:49:35.317Z,22.39
2019-03-06T10:50:35.318Z,22.38
2019-03-06T10:51:35.312Z,22.46
2019-03-06T10:52:35.264Z,22.44
2019-03-06T10:53:41.472Z,22.44
2019-03-06T10:54:44.293Z,22.41
2019-03-06T10:55:36.235Z,22.49
2019-03-06T10:56:35.216Z,22.60
2019-03-06T10:57:35.247Z,22.64
2019-03-06T10:58:35.217Z,22.72
2019-03-06T10:59:35.203Z,22.75
2019-03-06T11:00:35.268Z,22.82
2019-03-06T11:01:35.185Z,22.99
2019-03-06T11:02:35.161Z,23.04
2019-03-06T11:03:35.144Z,23.08
2019-03-06T11:04:35.140Z,23.23
2019-03-06T11:05:35.112Z,23.32
2019-03-06T11:06:35.142Z,23.49
2019-03-06T11:07:35.102Z,23.65
2019-03-06T11:08:35.088Z,23.71
2019-03-06T11:09:35.088Z,23.82
2019-03-06T11:10:35.085Z,23.97
2019-03-06T11:11:35.045Z,24.05
2019-03-06T11:12:35.116Z,24.10
2019-03-06T11:13:35.054Z,24.12
2019-03-06T11:14:35.040Z,24.24
2019-03-06T11:15:35.017Z,24.39
2019-03-06T11:16:37.302Z,24.60
2019-03-06T11:17:35.028Z,24.69
2019-03-06T11:18:35.027Z,24.80
2019-03-06T11:19:34.989Z,24.98
2019-03-06T11:20:35.004Z,25.10
2019-03-06T11:21:34.950Z,25.20
2019-03-06T11:22:34.943Z,25.38
2019-03-06T11:23:34.951Z,25.50
2019-03-06T11:24:34.970Z,25.54
2019-03-06T11:25:34.909Z,25.71
2019-03-06T11:26:34.891Z,25.83
2019-03-06T11:27:34.896Z,25.99
2019-03-06T11:28:34.865Z,26.12
2019-03-06T11:29:34.858Z,26.22
2019-03-06T11:30:34.900Z,26.35
2019-03-06T11:31:34.861Z,26.40
2019-03-06T11:32:34.826Z,26.50
2019-03-06T11:33:36.762Z,26.62
2019-03-06T11:34:34.823Z,26.67
2019-03-06T11:35:34.806Z,26.80
2019-03-06T11:36:34.868Z,26.87
2019-03-06T11:37:34.826Z,27.01
2019-03-06T11:38:34.774Z,27.01
2019-03-06T11:39:34.764Z,27.05
2019-03-06T11:40:34.762Z,26.96
2019-03-06T11:41:34.757Z,26.99
2019-03-06T11:42:34.754Z,27.10
2019-03-06T11:43:34.706Z,27.24
2019-03-06T11:44:34.720Z,27.33
2019-03-06T11:45:34.703Z,27.43
2019-03-06T11:46:34.674Z,27.46
2019-03-06T11:47:34.681Z,27.46
2019-03-06T11:48:34.741Z,27.53
2019-03-06T11:49:34.649Z,27.53
2019-03-06T11:50:40.868Z,27.47
2019-03-06T11:51:35.626Z,27.46
2019-03-06T11:52:34.961Z,27.42
2019-03-06T11:53:34.618Z,27.24
2019-03-06T11:54:34.649Z,27.11
2019-03-06T11:55:34.599Z,26.89
2019-03-06T11:56:34.587Z,26.83
2019-03-06T11:57:34.563Z,26.73
2019-03-06T11:58:34.583Z,26.65
2019-03-06T11:59:34.546Z,26.54
2019-03-06T12:00:34.558Z,26.47
2019-03-06T12:01:34.522Z,26.44
2019-03-06T12:02:34.550Z,26.50
2019-03-06T12:03:34.493Z,26.55
2019-03-06T12:04:34.489Z,26.58
2019-03-06T12:05:34.522Z,26.64
2019-03-06T12:06:34.499Z,26.58
2019-03-06T12:07:34.484Z,26.58
2019-03-06T12:08:34.475Z,26.59
2019-03-06T12:09:34.448Z,26.67
2019-03-06T12:10:34.429Z,26.73
2019-03-06T12:11:35.220Z,26.69
2019-03-06T12:12:34.535Z,26.73
2019-03-06T12:13:34.436Z,26.73
2019-03-06T12:14:34.390Z,26.72
2019-03-06T12:15:34.363Z,26.76
2019-03-06T12:16:41.622Z,26.77
2019-03-06T12:17:35.429Z,26.79
2019-03-06T12:18:34.352Z,26.81
2019-03-06T12:19:34.344Z,26.87
2019-03-06T12:20:34.318Z,26.83
2019-03-06T12:21:34.299Z,26.72
2019-03-06T12:22:34.297Z,26.68
2019-03-06T12:23:34.324Z,26.67
2019-03-06T12:24:34.273Z,26.59
2019-03-06T12:25:34.323Z,26.39
2019-03-06T12:26:34.258Z,26.31
2019-03-06T12:27:34.278Z,26.20
2019-03-06T12:28:34.253Z,26.04
2019-03-06T12:29:34.258Z,25.89
2019-03-06T12:30:34.219Z,25.80
2019-03-06T12:31:34.250Z,25.67
2019-03-06T12:32:34.119Z,25.57
2019-03-06T12:33:34.095Z,25.52
2019-03-06T12:34:34.085Z,25.30
2019-03-06T12:35:34.126Z,25.28
2019-03-06T12:36:36.092Z,25.16
2019-03-06T12:37:34.044Z,25.00
2019-03-06T12:38:34.063Z,24.88
2019-03-06T12:39:34.050Z,24.77
2019-03-06T12:40:34.027Z,24.63
2019-03-06T12:41:34.054Z,24.49
2019-03-06T12:42:34.000Z,24.34
2019-03-06T12:43:33.989Z,24.20
2019-03-06T12:44:33.969Z,24.14
2019-03-06T12:45:33.972Z,24.16
2019-03-06T12:46:33.964Z,24.01
2019-03-06T12:47:34.118Z,24.01
2019-03-06T12:48:33.964Z,23.86
2019-03-06T12:49:33.930Z,23.90
2019-03-06T12:50:33.903Z,23.83
2019-03-06T12:51:33.914Z,23.79
2019-03-06T12:52:33.907Z,23.75